createdAt,value
2022-09-18T00:01:41.468Z,1.25
2022-09-18T00:04:19.692Z,0.82
2022-09-18T00:06:47.572Z,0.65
2022-09-18T00:09:16.120Z,0.80
2022-09-18T00:11:47.257Z,0.85
2022-09-18T00:14:22.835Z,0.60
2022-09-18T00:16:51.311Z,0.75
2022-09-18T00:19:20.310Z,0.70
2022-09-18T00:21:51.291Z,0.80
2022-09-18T00:24:19.641Z,0.83
2022-09-18T00:26:48.389Z,0.77
2022-09-18T00:29:18.023Z,0.80
2022-09-18T00:31:46.448Z,0.82
2022-09-18T00:34:15.914Z,0.60
2022-09-18T00:36:47.479Z,0.60
2022-09-18T00:39:16.211Z,0.70
2022-09-18T00:41:45.212Z,0.60
2022-09-18T00:45:07.135Z,0.90
2022-09-18T00:47:48.415Z,0.57
2022-09-18T00:50:27.231Z,0.70
2022-09-18T00:53:03.363Z,0.88
2022-09-18T00:55:34.548Z,0.52
2022-09-18T00:58:06.880Z,0.70
2022-09-18T01:00:35.464Z,0.60
2022-09-18T01:03:23.202Z,0.52
2022-09-18T01:06:06.232Z,0.80
2022-09-18T01:08:54.331Z,0.50
2022-09-18T01:11:28.048Z,0.70
2022-09-18T01:14:27.593Z,0.70
2022-09-18T01:17:17.137Z,0.60
2022-09-18T01:20:47.104Z,0.70
2022-09-18T01:23:58.451Z,0.68
2022-09-18T01:26:43.718Z,0.50
2022-09-18T01:29:51.433Z,0.60
2022-09-18T01:32:47.148Z,0.65
2022-09-18T01:35:40.060Z,0.70
2022-09-18T01:38:33.641Z,0.52
2022-09-18T01:41:19.802Z,0.70
2022-09-18T01:43:54.776Z,0.60
2022-09-18T01:46:25.653Z,0.70
2022-09-18T01:49:18.255Z,0.60
2022-09-18T01:52:08.634Z,0.88
2022-09-18T01:54:42.916Z,0.60
2022-09-18T01:57:39.224Z,0.60
2022-09-18T02:00:11.447Z,0.60
2022-09-18T02:02:54.907Z,0.60
2022-09-18T02:05:48.377Z,0.73
2022-09-18T02:08:22.782Z,0.65
2022-09-18T02:11:13.060Z,0.60
2022-09-18T02:14:07.402Z,0.60
2022-09-18T02:17:03.921Z,0.60
2022-09-18T02:19:42.755Z,0.70
2022-09-18T02:22:18.053Z,0.50
2022-09-18T02:24:50.973Z,0.70
2022-09-18T02:27:21.839Z,0.45
2022-09-18T02:29:49.713Z,0.60
2022-09-18T02:32:18.533Z,0.57
2022-09-18T02:34:46.769Z,0.80
2022-09-18T02:37:56.264Z,0.55
2022-09-18T02:40:55.018Z,0.65
2022-09-18T02:43:35.983Z,0.50
2022-09-18T02:46:39.147Z,0.65
2022-09-18T02:49:45.044Z,0.80
2022-09-18T02:52:28.108Z,0.55
2022-09-18T02:55:21.548Z,0.60
2022-09-18T02:58:00.926Z,0.60
2022-09-18T03:00:31.942Z,0.70
2022-09-18T03:03:02.662Z,0.63
2022-09-18T03:05:35.808Z,0.60
2022-09-18T03:08:04.804Z,0.60
2022-09-18T03:10:33.137Z,0.80
2022-09-18T03:13:01.479Z,0.70
2022-09-18T03:15:29.941Z,0.65
2022-09-18T03:17:58.924Z,0.60
2022-09-18T03:20:26.653Z,0.50
2022-09-18T03:22:55.141Z,0.68
2022-09-18T03:25:24.364Z,0.70
2022-09-18T03:27:57.709Z,0.80
2022-09-18T03:30:36.314Z,0.90
2022-09-18T03:33:04.910Z,0.70
2022-09-18T03:35:37.634Z,0.70
2022-09-18T03:38:05.658Z,0.70
2022-09-18T03:40:33.448Z,0.57
2022-09-18T03:43:06.306Z,0.55
2022-09-18T03:45:34.221Z,0.60
2022-09-18T03:48:04.946Z,0.60
2022-09-18T03:50:33.197Z,0.50
2022-09-18T03:53:01.919Z,0.68
2022-09-18T03:55:38.791Z,0.52
2022-09-18T03:58:43.423Z,0.50
2022-09-18T04:01:30.627Z,0.55
2022-09-18T04:04:18.012Z,0.50
2022-09-18T04:07:09.262Z,0.60
2022-09-18T04:10:00.798Z,0.90
2022-09-18T04:12:29.259Z,0.57
2022-09-18T04:15:11.153Z,0.70
2022-09-18T04:17:43.720Z,1.13
2022-09-18T04:20:13.323Z,0.63
2022-09-18T04:22:43.276Z,0.60
2022-09-18T04:25:11.231Z,0.70
2022-09-18T04:27:40.639Z,0.57
2022-09-18T04:30:11.425Z,0.70
2022-09-18T04:32:44.759Z,0.80
2022-09-18T04:35:13.170Z,0.70
2022-09-18T04:37:45.503Z,0.60
2022-09-18T04:40:14.285Z,0.75
2022-09-18T04:42:43.837Z,0.75
2022-09-18T04:45:13.358Z,0.77
2022-09-18T04:47:43.679Z,0.73
2022-09-18T04:50:11.528Z,0.93
2022-09-18T04:52:59.475Z,0.85
2022-09-18T04:55:28.501Z,0.93
2022-09-18T04:57:57.646Z,0.80
2022-09-18T05:00:25.884Z,0.90
2022-09-18T05:02:56.091Z,0.90
2022-09-18T05:05:29.032Z,1.20
2022-09-18T05:08:01.423Z,1.00
2022-09-18T05:10:30.931Z,0.90
2022-09-18T05:12:59.908Z,1.10
2022-09-18T05:15:32.454Z,1.20
2022-09-18T05:18:11.332Z,1.08
2022-09-18T05:20:40.895Z,0.95
2022-09-18T05:23:10.044Z,0.95
2022-09-18T05:25:38.442Z,0.90
2022-09-18T05:28:07.587Z,0.93
2022-09-18T05:30:42.610Z,1.00
2022-09-18T05:33:12.158Z,1.20
2022-09-18T05:35:42.352Z,1.45
2022-09-18T05:38:11.681Z,1.10
2022-09-18T05:40:43.447Z,1.20
2022-09-18T05:43:12.142Z,1.08
2022-09-18T05:45:40.069Z,0.90
2022-09-18T05:48:16.782Z,1.10
2022-09-18T05:50:45.847Z,1.00
2022-09-18T05:53:20.786Z,1.10
2022-09-18T05:56:18.755Z,0.80
2022-09-18T05:58:49.130Z,0.90
2022-09-18T06:01:18.505Z,1.13
2022-09-18T06:04:06.356Z,1.00
2022-09-18T06:06:59.323Z,0.90
2022-09-18T06:09:27.804Z,0.90
2022-09-18T06:11:56.194Z,0.90
2022-09-18T06:14:24.599Z,0.80
2022-09-18T06:16:52.887Z,0.80
2022-09-18T06:19:21.340Z,0.75
2022-09-18T06:21:50.089Z,0.80
2022-09-18T06:24:20.378Z,0.80
2022-09-18T06:26:59.740Z,1.13
2022-09-18T06:29:28.592Z,0.70
2022-09-18T06:32:04.577Z,0.73
2022-09-18T06:34:53.190Z,0.88
2022-09-18T06:37:22.638Z,0.77
2022-09-18T06:40:18.225Z,0.70
2022-09-18T06:43:11.083Z,0.88
2022-09-18T06:46:16.678Z,0.70
2022-09-18T06:51:17.166Z,0.70
2022-09-18T06:54:12.381Z,0.85
2022-09-18T06:56:42.899Z,0.77
2022-09-18T06:59:14.448Z,0.80
2022-09-18T07:01:43.054Z,0.80
2022-09-18T07:04:19.853Z,0.60
2022-09-18T07:06:48.135Z,0.80
2022-09-18T07:09:16.946Z,0.68
2022-09-18T07:12:05.301Z,0.70
2022-09-18T07:14:42.018Z,0.80
2022-09-18T07:17:18.237Z,0.70
2022-09-18T07:19:51.266Z,0.70
2022-09-18T07:22:22.786Z,0.80
2022-09-18T07:24:51.252Z,0.60
2022-09-18T07:27:21.561Z,0.98
2022-09-18T07:29:51.463Z,0.63
2022-09-18T07:32:21.782Z,0.70
2022-09-18T07:34:50.925Z,0.70
2022-09-18T07:37:28.228Z,0.70
2022-09-18T07:40:12.848Z,0.82
2022-09-18T07:43:07.817Z,0.68
2022-09-18T07:45:39.485Z,0.90
2022-09-18T07:48:09.605Z,0.70
2022-09-18T07:50:42.929Z,1.00
2022-09-18T07:53:11.070Z,1.13
2022-09-18T07:55:45.355Z,0.95
2022-09-18T07:58:14.569Z,1.15
2022-09-18T08:01:06.108Z,1.15
2022-09-18T08:03:41.564Z,0.93
2022-09-18T08:06:13.861Z,0.88
2022-09-18T08:09:03.507Z,0.75
2022-09-18T08:11:58.156Z,0.80
2022-09-18T08:14:43.415Z,0.90
2022-09-18T08:17:20.286Z,0.80
2022-09-18T08:20:11.632Z,0.80
2022-09-18T08:22:45.285Z,0.90
2022-09-18T08:25:15.432Z,1.10
2022-09-18T08:27:49.658Z,0.90
2022-09-18T08:30:31.449Z,0.70
2022-09-18T08:33:24.774Z,0.73
2022-09-18T08:35:56.471Z,0.80
2022-09-18T08:38:30.723Z,0.80
2022-09-18T08:41:43.347Z,0.85
2022-09-18T08:44:25.053Z,0.63
2022-09-18T08:47:07.925Z,0.63
2022-09-18T08:49:54.115Z,0.80
2022-09-18T08:52:26.353Z,0.77
2022-09-18T08:55:21.435Z,0.80
2022-09-18T08:58:16.868Z,0.90
2022-09-18T09:00:56.629Z,0.60
2022-09-18T09:03:56.426Z,0.70
2022-09-18T09:06:55.269Z,0.70
2022-09-18T09:09:37.760Z,1.00
2022-09-18T09:12:46.472Z,0.90
2022-09-18T09:15:33.117Z,0.80
2022-09-18T09:18:38.187Z,0.80
2022-09-18T09:21:39.117Z,0.98
2022-09-18T09:24:28.292Z,0.70
2022-09-18T09:27:34.776Z,0.70
2022-09-18T09:30:36.662Z,0.70
2022-09-18T09:34:22.403Z,0.50
2022-09-18T09:36:59.528Z,0.85
2022-09-18T09:39:54.963Z,1.00
2022-09-18T09:42:40.709Z,0.90
2022-09-18T09:45:45.136Z,0.80
2022-09-18T09:48:39.526Z,0.70
2022-09-18T09:51:22.929Z,0.70
2022-09-18T09:53:55.954Z,0.70
2022-09-18T09:57:09.970Z,0.70
2022-09-18T09:59:53.179Z,0.73
2022-09-18T10:02:44.683Z,0.60
2022-09-18T10:05:29.360Z,0.50
2022-09-18T10:08:32.278Z,0.85
2022-09-18T10:11:09.175Z,0.70
2022-09-18T10:13:47.251Z,0.80
2022-09-18T10:16:27.830Z,0.70
2022-09-18T10:18:57.706Z,0.80
2022-09-18T10:21:35.364Z,0.55
2022-09-18T10:24:22.181Z,0.52
2022-09-18T10:26:57.741Z,0.70
2022-09-18T10:29:26.201Z,0.60
2022-09-18T10:32:01.126Z,0.60
2022-09-18T10:34:45.907Z,0.70
2022-09-18T10:37:30.266Z,0.70
2022-09-18T10:40:40.082Z,0.52
2022-09-18T10:43:20.408Z,0.70
2022-09-18T10:45:56.231Z,0.77
2022-09-18T10:48:36.502Z,0.63
2022-09-18T10:51:04.985Z,0.70
2022-09-18T10:53:38.829Z,0.80
2022-09-18T10:56:26.001Z,0.70
2022-09-18T10:58:56.488Z,0.70
2022-09-18T11:01:25.988Z,0.82
2022-09-18T11:04:05.893Z,0.70
2022-09-18T11:06:46.663Z,0.60
2022-09-18T11:09:41.847Z,0.50
2022-09-18T11:12:24.717Z,0.38
2022-09-18T11:15:04.759Z,0.32
2022-09-18T11:17:47.596Z,0.50
2022-09-18T11:20:30.058Z,0.40
2022-09-18T11:23:21.338Z,0.40
2022-09-18T11:26:11.536Z,0.40
2022-09-18T11:28:40.852Z,0.50
2022-09-18T11:31:18.709Z,0.50
2022-09-18T11:33:57.471Z,0.50
2022-09-18T11:36:34.457Z,0.40
2022-09-18T11:39:22.533Z,0.50
2022-09-18T11:41:55.335Z,0.50
2022-09-18T11:44:31.778Z,0.70
2022-09-18T11:47:31.147Z,0.40
2022-09-18T11:50:26.287Z,0.70
2022-09-18T11:52:59.066Z,0.50
2022-09-18T11:55:53.247Z,0.57
2022-09-18T12:01:29.451Z,0.32
2022-09-18T12:04:17.717Z,0.43
2022-09-18T12:07:37.608Z,0.50
2022-09-18T12:10:16.272Z,0.43
2022-09-18T12:13:28.013Z,0.35
2022-09-18T12:16:21.682Z,0.63
2022-09-18T12:19:09.265Z,0.60
2022-09-18T12:22:06.576Z,0.70
2022-09-18T12:24:35.494Z,0.40
2022-09-18T12:27:31.668Z,0.40
2022-09-18T12:30:15.439Z,0.60
2022-09-18T12:33:05.710Z,0.40
2022-09-18T12:36:04.714Z,0.55
2022-09-18T12:39:02.617Z,0.50
2022-09-18T12:42:09.045Z,0.50
2022-09-18T12:45:13.715Z,0.40
2022-09-18T12:48:00.784Z,0.50
2022-09-18T12:51:22.459Z,0.40
2022-09-18T12:54:33.532Z,0.40
2022-09-18T12:57:25.782Z,0.50
2022-09-18T13:00:08.887Z,0.55
2022-09-18T13:02:57.396Z,0.32
2022-09-18T13:05:54.613Z,0.60
2022-09-18T13:08:42.752Z,0.63
2022-09-18T13:11:41.940Z,0.47
2022-09-18T13:14:39.245Z,0.50
2022-09-18T13:17:15.995Z,0.57
2022-09-18T13:20:07.489Z,0.43
2022-09-18T13:22:38.328Z,0.60
2022-09-18T13:25:38.139Z,0.80
2022-09-18T13:28:15.165Z,0.50
2022-09-18T13:30:44.105Z,0.47
2022-09-18T13:33:27.060Z,0.70
2022-09-18T13:35:58.448Z,0.45
2022-09-18T13:38:28.924Z,0.60
2022-09-18T13:41:12.388Z,0.50
2022-09-18T13:43:45.631Z,0.52
2022-09-18T13:46:38.692Z,0.50
2022-09-18T13:49:54.690Z,0.45
2022-09-18T13:52:35.249Z,0.50
2022-09-18T13:55:18.406Z,0.45
2022-09-18T13:57:46.362Z,0.75
2022-09-18T14:00:20.507Z,0.50
2022-09-18T14:03:28.113Z,0.50
2022-09-18T14:05:56.409Z,0.57
2022-09-18T14:08:27.257Z,0.40
2022-09-18T14:11:17.584Z,0.52
2022-09-18T14:13:55.510Z,0.50
2022-09-18T14:16:41.071Z,0.68
2022-09-18T14:19:36.983Z,0.40
2022-09-18T14:22:06.516Z,0.50
2022-09-18T14:24:57.471Z,0.70
2022-09-18T14:27:48.921Z,0.55
2022-09-18T14:30:29.505Z,0.45
2022-09-18T14:33:20.866Z,0.60
2022-09-18T14:36:04.556Z,0.50
2022-09-18T14:38:34.627Z,0.70
2022-09-18T14:41:31.774Z,0.70
2022-09-18T14:44:04.829Z,0.65
2022-09-18T14:46:33.441Z,0.50
2022-09-18T14:49:03.147Z,0.70
2022-09-18T14:51:44.871Z,1.15
2022-09-18T14:54:24.405Z,0.75
2022-09-18T14:56:59.123Z,0.70
2022-09-18T14:59:28.899Z,0.80
2022-09-18T15:02:34.115Z,0.90
2022-09-18T15:05:13.296Z,1.00
2022-09-18T15:07:53.944Z,0.90
2022-09-18T15:10:24.541Z,0.60
2022-09-18T15:12:53.711Z,0.60
2022-09-18T15:15:27.967Z,0.70
2022-09-18T15:17:57.353Z,0.60
2022-09-18T15:20:27.486Z,0.52
2022-09-18T15:22:57.053Z,0.60
2022-09-18T15:25:37.934Z,0.60
2022-09-18T15:28:07.788Z,0.60
2022-09-18T15:30:38.064Z,0.88
2022-09-18T15:33:19.097Z,0.60
2022-09-18T15:35:55.287Z,0.65
2022-09-18T15:38:40.222Z,1.40
2022-09-18T15:41:41.877Z,0.90
2022-09-18T15:46:56.774Z,0.80
2022-09-18T15:49:30.928Z,0.90
2022-09-18T15:51:59.268Z,0.47
2022-09-18T15:54:28.739Z,0.60
2022-09-18T15:57:00.960Z,0.40
2022-09-18T15:59:38.803Z,0.50
2022-09-18T16:02:39.487Z,0.60
2022-09-18T16:05:15.056Z,0.50
2022-09-18T16:07:59.811Z,0.50
2022-09-18T16:10:51.576Z,0.60
2022-09-18T16:13:21.923Z,0.70
2022-09-18T16:16:12.399Z,1.10
2022-09-18T16:19:13.510Z,0.88
2022-09-18T16:21:44.337Z,0.90
2022-09-18T16:24:29.890Z,0.82
2022-09-18T16:27:07.929Z,0.50
2022-09-18T16:29:35.973Z,0.60
2022-09-18T16:32:08.695Z,0.40
2022-09-18T16:34:36.543Z,0.50
2022-09-18T16:37:12.331Z,0.60
2022-09-18T16:39:40.994Z,0.50
2022-09-18T16:42:18.787Z,0.60
2022-09-18T16:44:47.269Z,0.57
2022-09-18T16:47:16.210Z,0.50
2022-09-18T16:49:49.255Z,0.80
2022-09-18T16:52:17.342Z,0.75
2022-09-18T16:54:45.539Z,0.70
2022-09-18T16:57:20.528Z,1.08
2022-09-18T16:59:49.877Z,0.80
2022-09-18T17:02:24.338Z,0.88
2022-09-18T17:04:54.944Z,0.50
2022-09-18T17:07:26.051Z,0.50
2022-09-18T17:09:56.978Z,0.50
2022-09-18T17:12:26.491Z,0.60
2022-09-18T17:14:54.566Z,0.68
2022-09-18T17:17:22.335Z,0.30
2022-09-18T17:19:50.443Z,0.43
2022-09-18T17:22:22.494Z,0.43
2022-09-18T17:24:52.080Z,0.50
2022-09-18T17:27:22.807Z,0.45
2022-09-18T17:29:51.276Z,0.52
2022-09-18T17:32:19.806Z,0.50
2022-09-18T17:34:48.151Z,0.55
2022-09-18T17:37:16.110Z,0.60
2022-09-18T17:39:45.573Z,0.73
2022-09-18T17:42:17.702Z,0.90
2022-09-18T17:44:45.735Z,0.80
2022-09-18T17:47:13.704Z,0.50
2022-09-18T17:49:41.789Z,0.50
2022-09-18T17:52:10.105Z,0.60
2022-09-18T17:54:38.719Z,0.50
2022-09-18T17:57:11.613Z,0.60
2022-09-18T17:59:42.286Z,0.40
2022-09-18T18:02:13.234Z,0.60
2022-09-18T18:04:41.867Z,0.60
2022-09-18T18:07:10.384Z,0.50
2022-09-18T18:09:39.668Z,0.52
2022-09-18T18:12:09.438Z,0.45
2022-09-18T18:14:38.883Z,0.40
2022-09-18T18:17:08.665Z,0.50
2022-09-18T18:19:37.213Z,0.40
2022-09-18T18:22:06.485Z,0.63
2022-09-18T18:24:34.845Z,0.50
2022-09-18T18:27:04.958Z,0.52
2022-09-18T18:29:33.335Z,0.50
2022-09-18T18:32:02.013Z,0.60
2022-09-18T18:34:31.563Z,0.50
2022-09-18T18:37:14.671Z,0.50
2022-09-18T18:39:43.082Z,0.65
2022-09-18T18:42:12.037Z,0.60
2022-09-18T18:44:42.501Z,0.50
2022-09-18T18:47:10.875Z,0.50
2022-09-18T18:49:40.248Z,0.55
2022-09-18T18:52:12.697Z,0.50
2022-09-18T18:54:44.150Z,0.50
2022-09-18T18:57:12.079Z,0.70
2022-09-18T18:59:40.680Z,0.47
2022-09-18T19:02:11.560Z,0.50
2022-09-18T19:04:42.457Z,0.43
2022-09-18T19:07:11.841Z,0.60
2022-09-18T19:09:41.796Z,0.30
2022-09-18T19:12:13.563Z,0.40
2022-09-18T19:14:42.197Z,0.50
2022-09-18T19:17:11.443Z,0.40
2022-09-18T19:19:41.130Z,0.30
2022-09-18T19:22:17.085Z,0.40
2022-09-18T19:24:50.348Z,0.40
2022-09-18T19:27:19.146Z,0.50
2022-09-18T19:29:50.101Z,0.40
2022-09-18T19:32:20.867Z,0.50
2022-09-18T19:34:49.909Z,0.57
2022-09-18T19:37:18.480Z,0.45
2022-09-18T19:39:49.454Z,0.40
2022-09-18T19:42:18.432Z,0.40
2022-09-18T19:44:56.424Z,0.50
2022-09-18T19:47:48.721Z,0.60
2022-09-18T19:50:33.121Z,0.63
2022-09-18T19:53:01.657Z,0.60
2022-09-18T19:55:34.262Z,1.15
2022-09-18T19:58:03.215Z,0.68
2022-09-18T20:00:33.743Z,0.40
2022-09-18T20:03:02.252Z,0.40
2022-09-18T20:05:30.988Z,0.45
2022-09-18T20:08:01.623Z,0.47
2022-09-18T20:10:30.363Z,0.45
2022-09-18T20:12:59.373Z,0.50
2022-09-18T20:15:28.226Z,0.50
2022-09-18T20:17:57.347Z,0.68
2022-09-18T20:20:26.635Z,0.50
2022-09-18T20:22:56.099Z,0.55
2022-09-18T20:25:25.179Z,0.57
2022-09-18T20:27:54.076Z,0.70
2022-09-18T20:30:22.078Z,0.60
2022-09-18T20:32:51.952Z,0.80
2022-09-18T20:35:20.578Z,0.65
2022-09-18T20:37:49.024Z,0.63
2022-09-18T20:40:17.175Z,0.70
2022-09-18T20:42:51.367Z,0.70
2022-09-18T20:45:20.233Z,0.70
2022-09-18T20:47:48.791Z,0.55
2022-09-18T20:50:17.233Z,0.65
2022-09-18T20:52:45.580Z,0.50
2022-09-18T20:55:17.398Z,0.50
2022-09-18T20:57:46.347Z,0.40
2022-09-18T21:00:17.186Z,0.40
2022-09-18T21:02:51.703Z,0.47
2022-09-18T21:05:22.984Z,0.55
2022-09-18T21:07:57.919Z,0.50
2022-09-18T21:10:27.958Z,0.50
2022-09-18T21:12:59.218Z,0.60
2022-09-18T21:15:31.481Z,0.40
2022-09-18T21:18:00.366Z,0.43
2022-09-18T21:20:28.517Z,0.30
2022-09-18T21:23:15.243Z,0.50
2022-09-18T21:25:43.238Z,0.47
2022-09-18T21:28:13.702Z,0.30
2022-09-18T21:30:41.767Z,0.60
2022-09-18T21:33:10.957Z,0.50
2022-09-18T21:35:49.961Z,0.60
2022-09-18T21:38:18.209Z,0.50
2022-09-18T21:40:46.578Z,0.50
2022-09-18T21:43:15.784Z,0.45
2022-09-18T21:45:43.867Z,0.50
2022-09-18T21:48:13.267Z,0.50
2022-09-18T21:50:44.264Z,0.50
2022-09-18T21:53:12.363Z,0.38
2022-09-18T21:55:40.981Z,0.50
2022-09-18T21:58:09.489Z,0.55
2022-09-18T22:00:37.699Z,0.40
2022-09-18T22:03:08.984Z,0.50
2022-09-18T22:05:37.134Z,0.30
2022-09-18T22:08:05.775Z,0.20
2022-09-18T22:10:35.263Z,0.20
2022-09-18T22:13:03.600Z,0.22
2022-09-18T22:32:03.467Z,0.35
2022-09-18T22:34:35.196Z,0.35
2022-09-18T22:37:06.344Z,0.30
2022-09-18T22:39:36.016Z,0.30
2022-09-18T22:42:07.265Z,0.30
2022-09-18T22:44:35.710Z,0.45
2022-09-18T22:47:04.633Z,0.50
2022-09-18T22:49:32.645Z,0.50
2022-09-18T22:52:00.587Z,0.50
2022-09-18T22:54:28.705Z,0.40
2022-09-18T22:56:57.147Z,0.30
2022-09-18T22:59:26.750Z,0.30
